createdAt,value
2019-01-13T00:01:54.336Z,4.43
2019-01-13T00:03:59.437Z,4.23
2019-01-13T00:06:04.599Z,5.93
2019-01-13T00:08:09.722Z,5.70
2019-01-13T00:10:14.691Z,6.50
2019-01-13T00:12:19.640Z,6.37
2019-01-13T00:14:24.616Z,7.07
2019-01-13T00:16:29.785Z,6.83
2019-01-13T00:18:34.747Z,6.90
2019-01-13T00:20:39.792Z,7.50
2019-01-13T00:22:44.849Z,7.93
2019-01-13T00:24:49.915Z,8.27
2019-01-13T00:26:54.855Z,8.07
2019-01-13T00:28:59.894Z,8.23
2019-01-13T00:31:05.079Z,8.33
2019-01-13T00:33:10.240Z,9.53
2019-01-13T00:35:16.600Z,8.73
2019-01-13T00:37:21.725Z,8.13
2019-01-13T00:39:26.781Z,9.37
2019-01-13T00:41:31.836Z,9.23
2019-01-13T00:43:37.223Z,9.47
2019-01-13T00:45:42.316Z,8.70
2019-01-13T00:47:47.397Z,8.53
2019-01-13T00:49:52.422Z,8.97
2019-01-13T00:51:57.483Z,8.70
2019-01-13T00:54:03.128Z,8.27
2019-01-13T00:56:08.173Z,8.73
2019-01-13T00:58:13.163Z,8.13
2019-01-13T01:00:26.419Z,8.03
2019-01-13T01:02:28.372Z,8.60
2019-01-13T01:04:33.417Z,8.23
2019-01-13T01:06:38.619Z,9.07
2019-01-13T01:08:43.736Z,9.57
2019-01-13T01:10:48.770Z,9.80
2019-01-13T01:12:53.899Z,8.67
2019-01-13T01:14:59.490Z,9.20
2019-01-13T01:17:04.606Z,9.10
2019-01-13T01:19:09.631Z,8.60
2019-01-13T01:21:14.755Z,7.97
2019-01-13T01:23:20.100Z,8.37
2019-01-13T01:25:24.990Z,8.63
2019-01-13T01:27:29.973Z,8.30
2019-01-13T01:29:34.961Z,8.10
2019-01-13T01:31:40.002Z,8.17
2019-01-13T01:33:45.261Z,8.57
2019-01-13T01:35:50.511Z,8.47
2019-01-13T01:37:55.542Z,8.60
2019-01-13T01:40:00.588Z,7.73
2019-01-13T01:42:05.707Z,8.87
2019-01-13T01:44:10.933Z,9.23
2019-01-13T01:46:16.047Z,8.27
2019-01-13T01:48:21.103Z,9.33
2019-01-13T01:50:26.308Z,9.37
2019-01-13T01:52:31.253Z,9.33
2019-01-13T01:54:36.505Z,9.50
2019-01-13T01:56:41.554Z,9.53
2019-01-13T01:58:46.570Z,9.53
2019-01-13T02:00:53.915Z,9.53
2019-01-13T02:03:02.727Z,9.23
2019-01-13T02:05:08.271Z,10.17
2019-01-13T02:07:14.205Z,9.90
2019-01-13T02:09:20.151Z,17.97
2019-01-13T02:11:25.332Z,14.10
2019-01-13T02:13:30.775Z,11.40
2019-01-13T02:15:35.727Z,10.93
2019-01-13T02:17:40.845Z,10.33
2019-01-13T02:19:46.296Z,11.40
2019-01-13T02:21:51.344Z,11.17
2019-01-13T02:23:56.341Z,10.37
2019-01-13T02:26:01.409Z,11.67
2019-01-13T02:28:06.914Z,12.03
2019-01-13T02:30:16.110Z,11.70
2019-01-13T02:32:21.181Z,11.13
2019-01-13T02:34:26.079Z,11.77
2019-01-13T02:36:31.126Z,11.43
2019-01-13T02:38:36.100Z,12.30
2019-01-13T02:40:41.152Z,12.10
2019-01-13T02:42:46.477Z,11.90
2019-01-13T02:44:51.397Z,11.53
2019-01-13T02:46:56.379Z,11.23
2019-01-13T02:49:01.727Z,11.67
2019-01-13T02:51:06.764Z,10.97
2019-01-13T02:53:11.753Z,10.53
2019-01-13T02:55:16.721Z,10.90
2019-01-13T02:57:21.705Z,10.90
2019-01-13T02:59:26.740Z,11.30
2019-01-13T03:01:34.004Z,10.10
2019-01-13T03:03:39.105Z,11.17
2019-01-13T03:05:44.146Z,11.10
2019-01-13T03:07:49.347Z,10.73
2019-01-13T03:09:54.460Z,11.63
2019-01-13T03:11:59.428Z,11.13
2019-01-13T03:14:04.882Z,11.73
2019-01-13T03:16:09.928Z,11.80
2019-01-13T03:18:14.979Z,10.87
2019-01-13T03:20:20.466Z,11.13
2019-01-13T03:22:25.527Z,10.97
2019-01-13T03:24:30.490Z,11.60
2019-01-13T03:26:35.576Z,10.73
2019-01-13T03:28:40.535Z,11.10
2019-01-13T03:30:45.598Z,10.43
2019-01-13T03:32:50.820Z,6.73
2019-01-13T03:34:55.939Z,5.77
2019-01-13T03:37:01.000Z,4.60
2019-01-13T03:39:09.092Z,4.80
2019-01-13T03:41:13.973Z,4.20
2019-01-13T03:43:18.958Z,4.10
2019-01-13T03:45:24.347Z,3.90
2019-01-13T03:47:29.314Z,3.40
2019-01-13T03:49:34.657Z,3.60
2019-01-13T03:51:39.735Z,3.70
2019-01-13T03:53:44.877Z,3.17
2019-01-13T03:55:49.907Z,1.90
2019-01-13T03:57:54.933Z,2.00
2019-01-13T03:59:59.910Z,2.00
2019-01-13T04:02:05.265Z,1.40
2019-01-13T04:04:10.445Z,1.70
2019-01-13T04:06:15.593Z,1.40
2019-01-13T04:08:20.821Z,2.33
2019-01-13T04:10:25.859Z,1.60
2019-01-13T04:12:31.437Z,1.90
2019-01-13T04:14:36.580Z,1.30
2019-01-13T04:16:42.540Z,1.30
2019-01-13T04:18:47.510Z,1.30
2019-01-13T04:20:52.877Z,1.17
2019-01-13T04:22:58.077Z,1.07
2019-01-13T04:25:03.101Z,1.80
2019-01-13T04:27:08.089Z,1.57
2019-01-13T04:29:13.195Z,1.50
2019-01-13T04:31:18.210Z,1.30
2019-01-13T04:33:23.258Z,1.53
2019-01-13T04:35:28.279Z,1.40
2019-01-13T04:37:33.286Z,1.30
2019-01-13T04:39:38.344Z,1.67
2019-01-13T04:41:43.439Z,1.67
2019-01-13T04:43:48.421Z,1.97
2019-01-13T04:45:53.691Z,1.83
2019-01-13T04:47:58.706Z,2.00
2019-01-13T04:50:05.094Z,1.80
2019-01-13T04:52:10.529Z,1.60
2019-01-13T04:54:15.505Z,1.67
2019-01-13T04:56:20.450Z,1.70
2019-01-13T04:58:25.494Z,1.80
2019-01-13T05:00:30.967Z,2.03
2019-01-13T05:02:36.006Z,1.97
2019-01-13T05:04:41.142Z,1.80
2019-01-13T05:06:46.162Z,1.90
2019-01-13T05:08:51.274Z,2.03
2019-01-13T05:10:56.744Z,2.10
2019-01-13T05:13:01.615Z,1.63
2019-01-13T05:15:07.902Z,1.33
2019-01-13T05:17:12.795Z,1.33
2019-01-13T05:19:17.748Z,1.30
2019-01-13T05:21:22.735Z,1.30
2019-01-13T05:23:27.649Z,1.00
2019-01-13T05:25:32.626Z,1.33
2019-01-13T05:27:37.686Z,1.33
2019-01-13T05:29:42.647Z,1.50
2019-01-13T05:31:47.661Z,1.43
2019-01-13T05:33:52.544Z,1.60
2019-01-13T05:35:57.778Z,1.67
2019-01-13T05:38:02.690Z,1.80
2019-01-13T05:40:08.910Z,2.23
2019-01-13T05:42:13.940Z,2.30
2019-01-13T05:44:19.489Z,1.90
2019-01-13T05:46:24.498Z,2.13
2019-01-13T05:48:29.642Z,2.20
2019-01-13T05:50:34.683Z,2.70
2019-01-13T05:52:40.871Z,2.33
2019-01-13T05:54:45.845Z,2.10
2019-01-13T05:56:50.733Z,2.40
2019-01-13T05:58:55.761Z,2.43
2019-01-13T06:01:00.884Z,2.23
2019-01-13T06:03:06.022Z,2.63
2019-01-13T06:05:11.277Z,2.70
2019-01-13T06:07:16.228Z,2.33
2019-01-13T06:09:21.371Z,2.33
2019-01-13T06:11:26.599Z,2.33
2019-01-13T06:13:31.651Z,2.63
2019-01-13T06:15:36.636Z,2.40
2019-01-13T06:17:42.073Z,2.30
2019-01-13T06:19:47.097Z,2.83
2019-01-13T06:21:52.097Z,2.30
2019-01-13T06:23:57.058Z,2.37
2019-01-13T06:26:01.969Z,2.43
2019-01-13T06:28:06.959Z,2.00
2019-01-13T06:30:16.484Z,1.90
2019-01-13T06:32:21.412Z,2.10
2019-01-13T06:34:26.425Z,2.03
2019-01-13T06:36:31.491Z,1.60
2019-01-13T06:38:36.466Z,1.30
2019-01-13T06:40:41.417Z,1.20
2019-01-13T06:42:46.495Z,1.30
2019-01-13T06:44:51.518Z,0.83
2019-01-13T06:46:56.886Z,0.73
2019-01-13T06:49:02.248Z,0.73
2019-01-13T06:51:07.584Z,0.80
2019-01-13T06:53:12.538Z,0.57
2019-01-13T06:55:17.751Z,0.70
2019-01-13T06:57:22.738Z,0.50
2019-01-13T06:59:27.817Z,0.57
2019-01-13T07:01:33.290Z,0.77
2019-01-13T07:03:38.311Z,0.50
2019-01-13T07:05:43.204Z,0.50
2019-01-13T07:07:48.815Z,0.30
2019-01-13T07:09:53.688Z,0.40
2019-01-13T07:11:58.717Z,0.37
2019-01-13T07:14:03.896Z,0.40
2019-01-13T07:16:08.994Z,0.30
2019-01-13T07:18:14.088Z,0.50
2019-01-13T07:20:21.118Z,0.30
2019-01-13T07:22:26.150Z,0.30
2019-01-13T07:24:31.181Z,0.43
2019-01-13T07:26:36.572Z,0.30
2019-01-13T07:28:41.500Z,0.40
2019-01-13T07:30:46.369Z,0.50
2019-01-13T07:32:51.606Z,0.33
2019-01-13T07:34:56.550Z,0.40
2019-01-13T07:37:01.426Z,0.40
2019-01-13T07:39:09.234Z,0.40
2019-01-13T07:41:14.190Z,0.30
2019-01-13T07:43:19.694Z,0.33
2019-01-13T07:45:27.081Z,0.20
2019-01-13T07:47:32.052Z,0.20
2019-01-13T07:49:38.705Z,0.30
2019-01-13T07:51:43.740Z,0.20
2019-01-13T07:53:49.133Z,0.23
2019-01-13T07:55:54.453Z,0.20
2019-01-13T07:57:59.813Z,0.20
2019-01-13T08:00:07.958Z,0.10
2019-01-13T08:02:17.861Z,0.30
2019-01-13T08:04:19.978Z,0.37
2019-01-13T08:06:25.195Z,0.30
2019-01-13T08:08:30.194Z,0.30
2019-01-13T08:10:35.144Z,0.30
2019-01-13T08:12:40.257Z,0.30
2019-01-13T08:14:45.281Z,0.40
2019-01-13T08:16:50.159Z,0.30
2019-01-13T08:18:55.419Z,0.20
2019-01-13T08:21:00.516Z,0.23
2019-01-13T08:23:06.037Z,0.40
2019-01-13T08:25:11.146Z,0.30
2019-01-13T08:27:16.527Z,0.30
2019-01-13T08:29:21.495Z,0.33
2019-01-13T08:31:26.573Z,0.30
2019-01-13T08:33:31.489Z,0.30
2019-01-13T08:35:36.585Z,0.20
2019-01-13T08:37:42.314Z,0.27
2019-01-13T08:39:47.421Z,0.20
2019-01-13T08:41:52.714Z,0.30
2019-01-13T08:43:58.101Z,0.30
2019-01-13T08:46:03.241Z,0.30
2019-01-13T08:48:08.323Z,0.30
2019-01-13T08:50:22.065Z,0.30
2019-01-13T08:52:27.124Z,0.30
2019-01-13T08:54:32.230Z,0.40
2019-01-13T08:56:37.757Z,0.20
2019-01-13T08:58:43.673Z,0.30
2019-01-13T09:00:48.611Z,0.60
2019-01-13T09:02:53.697Z,0.40
2019-01-13T09:04:58.611Z,0.30
2019-01-13T09:07:03.653Z,0.20
2019-01-13T09:09:10.070Z,0.23
2019-01-13T09:11:15.165Z,0.10
2019-01-13T09:13:20.198Z,0.20
2019-01-13T09:15:26.615Z,0.23
2019-01-13T09:17:31.920Z,0.10
2019-01-13T09:19:37.330Z,0.30
2019-01-13T09:21:42.550Z,0.40
2019-01-13T09:23:47.586Z,0.30
2019-01-13T09:25:52.568Z,0.40
2019-01-13T09:27:57.780Z,0.30
2019-01-13T09:30:02.830Z,0.30
2019-01-13T09:32:08.257Z,0.30
2019-01-13T09:34:13.224Z,0.40
2019-01-13T09:36:18.176Z,0.40
2019-01-13T09:38:23.150Z,0.40
2019-01-13T09:40:30.824Z,0.50
2019-01-13T09:42:35.890Z,0.63
2019-01-13T09:44:40.858Z,0.50
2019-01-13T09:46:46.182Z,0.50
2019-01-13T09:48:51.243Z,0.50
2019-01-13T09:50:56.666Z,0.67
2019-01-13T09:53:01.955Z,0.50
2019-01-13T09:55:08.681Z,0.53
2019-01-13T09:57:13.792Z,0.70
2019-01-13T09:59:18.771Z,0.70
2019-01-13T10:01:23.805Z,0.60
2019-01-13T10:03:29.136Z,0.70
2019-01-13T10:05:34.210Z,0.90
2019-01-13T10:07:39.167Z,0.80
2019-01-13T10:09:44.132Z,1.03
2019-01-13T10:11:49.013Z,1.00
2019-01-13T10:13:53.922Z,1.07
2019-01-13T10:15:59.030Z,1.20
2019-01-13T10:18:04.262Z,1.40
2019-01-13T10:20:11.310Z,1.37
2019-01-13T10:22:16.254Z,2.00
2019-01-13T10:24:21.203Z,1.50
2019-01-13T10:26:26.471Z,1.70
2019-01-13T10:28:31.527Z,1.73
2019-01-13T10:30:36.645Z,1.90
2019-01-13T10:32:41.895Z,2.30
2019-01-13T10:34:47.069Z,2.10
2019-01-13T10:36:52.153Z,2.27
2019-01-13T10:38:57.242Z,2.37
2019-01-13T10:41:02.314Z,2.83
2019-01-13T10:43:07.404Z,3.20
2019-01-13T10:45:13.612Z,3.13
2019-01-13T10:47:18.877Z,3.67
2019-01-13T10:49:24.152Z,3.47
2019-01-13T10:51:29.138Z,4.00
2019-01-13T10:53:34.201Z,3.73
2019-01-13T10:55:39.355Z,4.40
2019-01-13T10:57:44.866Z,4.10
2019-01-13T10:59:49.835Z,4.27
2019-01-13T11:01:54.877Z,4.27
2019-01-13T11:03:59.938Z,4.40
2019-01-13T11:06:04.966Z,4.00
2019-01-13T11:08:11.727Z,3.90
2019-01-13T11:10:17.166Z,5.87
2019-01-13T11:12:22.190Z,3.70
2019-01-13T11:14:27.169Z,2.80
2019-01-13T11:16:32.273Z,2.80
2019-01-13T11:18:37.371Z,2.93
2019-01-13T11:20:42.482Z,3.10
2019-01-13T11:22:47.684Z,2.40
2019-01-13T11:24:52.983Z,2.30
2019-01-13T11:26:57.931Z,1.93
2019-01-13T11:29:03.089Z,2.47
2019-01-13T11:31:08.120Z,2.30
2019-01-13T11:33:13.136Z,1.90
2019-01-13T11:35:18.181Z,3.30
2019-01-13T11:37:23.295Z,2.07
2019-01-13T11:39:28.333Z,1.77
2019-01-13T11:41:33.470Z,0.90
2019-01-13T11:43:38.364Z,0.80
2019-01-13T11:45:43.535Z,0.80
2019-01-13T11:47:48.679Z,0.70
2019-01-13T11:49:54.009Z,0.97
2019-01-13T11:51:59.030Z,1.07
2019-01-13T11:54:04.012Z,0.80
2019-01-13T11:56:09.353Z,0.50
2019-01-13T11:58:15.792Z,0.83
2019-01-13T12:00:31.167Z,0.80
2019-01-13T12:02:36.286Z,0.50
2019-01-13T12:04:41.642Z,0.90
2019-01-13T12:06:46.921Z,0.60
2019-01-13T12:08:51.947Z,0.70
2019-01-13T12:10:57.653Z,0.40
2019-01-13T12:13:02.873Z,0.43
2019-01-13T12:15:11.475Z,0.60
2019-01-13T12:17:17.068Z,0.50
2019-01-13T12:19:22.092Z,0.60
2019-01-13T12:21:27.290Z,0.77
2019-01-13T12:23:32.345Z,0.60
2019-01-13T12:25:37.370Z,0.70
2019-01-13T12:27:42.538Z,0.43
2019-01-13T12:29:47.559Z,0.47
2019-01-13T12:31:52.509Z,0.30
2019-01-13T12:33:57.784Z,0.30
2019-01-13T12:36:02.978Z,0.40
2019-01-13T12:38:08.078Z,0.33
2019-01-13T12:40:16.276Z,0.60
2019-01-13T12:42:21.403Z,0.40
2019-01-13T12:44:26.413Z,0.30
2019-01-13T12:46:31.453Z,0.40
2019-01-13T12:48:36.494Z,0.50
2019-01-13T12:50:41.618Z,2.80
2019-01-13T12:52:46.591Z,0.57
2019-01-13T12:54:51.813Z,0.57
2019-01-13T12:56:56.782Z,0.50
2019-01-13T12:59:01.733Z,0.40
2019-01-13T13:01:06.715Z,0.57
2019-01-13T13:03:11.669Z,0.40
2019-01-13T13:05:17.084Z,0.30
2019-01-13T13:07:22.101Z,0.40
2019-01-13T13:09:26.998Z,0.40
2019-01-13T13:11:31.886Z,0.30
2019-01-13T13:13:36.836Z,0.30
2019-01-13T13:15:41.977Z,0.70
2019-01-13T13:17:46.939Z,1.03
2019-01-13T13:19:52.280Z,0.83
2019-01-13T13:21:57.339Z,0.50
2019-01-13T13:24:02.306Z,0.60
2019-01-13T13:26:07.526Z,0.40
2019-01-13T13:28:12.671Z,0.50
2019-01-13T13:30:21.359Z,0.40
2019-01-13T13:32:26.348Z,0.40
2019-01-13T13:34:31.311Z,0.33
2019-01-13T13:36:36.623Z,0.37
2019-01-13T13:38:44.038Z,0.30
2019-01-13T13:40:49.149Z,0.80
2019-01-13T13:42:54.495Z,0.40
2019-01-13T13:44:59.758Z,0.40
2019-01-13T13:47:05.211Z,0.20
2019-01-13T13:49:10.277Z,0.40
2019-01-13T13:51:15.928Z,0.90
2019-01-13T13:53:20.945Z,0.60
2019-01-13T13:55:26.316Z,0.40
2019-01-13T13:57:31.332Z,0.50
2019-01-13T13:59:36.197Z,0.43
2019-01-13T14:01:41.234Z,0.90
2019-01-13T14:03:46.324Z,0.60
2019-01-13T14:05:52.695Z,0.30
2019-01-13T14:07:58.589Z,0.40
2019-01-13T14:10:05.282Z,0.37
2019-01-13T14:12:10.812Z,0.50
2019-01-13T14:14:18.108Z,0.53
2019-01-13T14:16:23.852Z,0.30
2019-01-13T14:18:29.262Z,0.60
2019-01-13T14:20:34.679Z,0.60
2019-01-13T14:22:40.812Z,0.40
2019-01-13T14:24:47.078Z,0.40
2019-01-13T14:26:52.669Z,0.40
2019-01-13T14:28:58.392Z,0.40
2019-01-13T14:31:04.280Z,0.40
2019-01-13T14:33:10.052Z,0.57
2019-01-13T14:35:16.045Z,2.07
2019-01-13T14:37:21.222Z,1.00
2019-01-13T14:39:26.240Z,0.70
2019-01-13T14:41:31.394Z,0.57
2019-01-13T14:43:36.377Z,0.60
2019-01-13T14:45:41.499Z,0.50
2019-01-13T14:47:46.763Z,0.40
2019-01-13T14:49:52.284Z,0.60
2019-01-13T14:51:57.355Z,0.60
2019-01-13T14:54:02.516Z,0.50
2019-01-13T14:56:07.646Z,0.50
2019-01-13T14:58:12.779Z,0.47
2019-01-13T15:00:27.166Z,0.70
2019-01-13T15:02:32.164Z,0.83
2019-01-13T15:04:37.208Z,0.83
2019-01-13T15:06:42.298Z,0.57
2019-01-13T15:08:47.359Z,1.07
2019-01-13T15:10:52.327Z,0.83
2019-01-13T15:12:57.447Z,0.80
2019-01-13T15:15:02.390Z,1.10
2019-01-13T15:17:07.509Z,0.73
2019-01-13T15:19:12.480Z,0.80
2019-01-13T15:21:17.441Z,0.60
2019-01-13T15:23:22.571Z,0.60
2019-01-13T15:25:30.641Z,0.77
2019-01-13T15:27:35.725Z,1.07
2019-01-13T15:29:40.708Z,0.73
2019-01-13T15:31:45.921Z,0.80
2019-01-13T15:33:51.010Z,1.70
2019-01-13T15:35:56.011Z,0.90
2019-01-13T15:38:01.367Z,0.80
2019-01-13T15:40:10.524Z,1.10
2019-01-13T15:42:15.472Z,5.47
2019-01-13T15:44:20.685Z,2.63
2019-01-13T15:46:25.788Z,1.77
2019-01-13T15:48:30.766Z,1.90
2019-01-13T15:50:35.911Z,1.90
2019-01-13T15:52:41.113Z,2.17
2019-01-13T15:54:46.315Z,1.80
2019-01-13T15:56:51.791Z,1.70
2019-01-13T15:58:56.849Z,2.20
2019-01-13T16:01:01.842Z,2.67
2019-01-13T16:03:09.227Z,2.30
2019-01-13T16:05:14.397Z,2.40
2019-01-13T16:07:19.360Z,6.13
2019-01-13T16:09:24.375Z,5.30
2019-01-13T16:11:29.268Z,4.97
2019-01-13T16:13:34.606Z,6.33
2019-01-13T16:15:39.688Z,4.30
2019-01-13T16:17:45.019Z,3.97
2019-01-13T16:19:50.079Z,6.73
2019-01-13T16:21:55.218Z,3.33
2019-01-13T16:24:00.418Z,5.33
2019-01-13T16:26:05.874Z,5.70
2019-01-13T16:28:11.022Z,6.60
2019-01-13T16:30:19.782Z,5.67
2019-01-13T16:32:27.409Z,5.90
2019-01-13T16:34:32.468Z,3.60
2019-01-13T16:36:37.684Z,5.50
2019-01-13T16:38:42.602Z,23.50
2019-01-13T16:40:47.509Z,17.73
2019-01-13T16:42:52.621Z,15.50
2019-01-13T16:44:57.594Z,5.90
2019-01-13T16:47:02.906Z,5.37
2019-01-13T16:49:07.854Z,4.37
2019-01-13T16:51:12.838Z,3.57
2019-01-13T16:53:18.047Z,5.30
2019-01-13T16:55:24.739Z,4.20
2019-01-13T16:57:29.710Z,3.67
2019-01-13T16:59:34.810Z,6.23
2019-01-13T17:01:39.787Z,3.80
2019-01-13T17:03:44.849Z,5.20
2019-01-13T17:05:49.926Z,3.93
2019-01-13T17:07:55.055Z,4.80
2019-01-13T17:09:59.990Z,4.67
2019-01-13T17:12:05.014Z,3.83
2019-01-13T17:14:09.964Z,7.70
2019-01-13T17:16:14.860Z,13.07
2019-01-13T17:18:19.751Z,4.63
2019-01-13T17:20:24.878Z,4.47
2019-01-13T17:22:29.889Z,3.70
2019-01-13T17:24:34.844Z,5.27
2019-01-13T17:26:39.848Z,3.10
2019-01-13T17:28:44.969Z,5.63
2019-01-13T17:30:50.899Z,5.20
2019-01-13T17:32:59.044Z,3.23
2019-01-13T17:35:05.032Z,15.33
2019-01-13T17:37:10.284Z,3.97
2019-01-13T17:39:15.244Z,3.40
2019-01-13T17:41:20.162Z,3.67
2019-01-13T17:43:25.418Z,3.50
2019-01-13T17:45:32.910Z,3.07
2019-01-13T17:47:37.872Z,2.80
2019-01-13T17:49:42.957Z,2.90
2019-01-13T17:51:47.941Z,3.10
2019-01-13T17:53:52.976Z,3.33
2019-01-13T17:55:58.121Z,3.80
2019-01-13T17:58:03.146Z,3.47
2019-01-13T18:00:46.537Z,3.40
2019-01-13T18:02:52.012Z,3.73
2019-01-13T18:04:57.231Z,4.07
2019-01-13T18:07:02.136Z,2.80
2019-01-13T18:09:09.528Z,3.30
2019-01-13T18:11:14.774Z,3.50
2019-01-13T18:13:19.755Z,5.33
2019-01-13T18:15:24.851Z,2.93
2019-01-13T18:17:30.745Z,1.73
2019-01-13T18:19:35.726Z,1.07
2019-01-13T18:21:40.786Z,0.90
2019-01-13T18:23:45.858Z,0.70
2019-01-13T18:25:50.955Z,0.70
2019-01-13T18:27:55.947Z,0.53
2019-01-13T18:30:01.387Z,0.50
2019-01-13T18:32:06.459Z,0.77
2019-01-13T18:34:11.763Z,0.80
2019-01-13T18:36:17.048Z,1.13
2019-01-13T18:38:22.195Z,1.77
2019-01-13T18:40:27.387Z,1.43
2019-01-13T18:42:32.300Z,1.00
2019-01-13T18:44:37.998Z,1.93
2019-01-13T18:46:43.050Z,1.10
2019-01-13T18:48:48.061Z,1.30
2019-01-13T18:50:53.454Z,1.30
2019-01-13T18:53:04.129Z,1.80
2019-01-13T18:55:09.610Z,1.00
2019-01-13T18:57:14.592Z,4.60
2019-01-13T18:59:19.699Z,2.73
2019-01-13T19:01:24.723Z,2.07
2019-01-13T19:03:29.798Z,3.03
2019-01-13T19:05:34.821Z,1.53
2019-01-13T19:07:40.233Z,2.23
2019-01-13T19:09:45.209Z,2.70
2019-01-13T19:11:53.317Z,3.00
2019-01-13T19:14:38.817Z,1.10
2019-01-13T19:17:11.130Z,1.30
2019-01-13T19:19:16.022Z,1.10
2019-01-13T19:21:21.792Z,4.93
2019-01-13T19:23:28.570Z,6.97
2019-01-13T19:25:35.472Z,2.93
2019-01-13T19:27:40.367Z,5.50
2019-01-13T19:29:45.678Z,3.83
2019-01-13T19:31:50.710Z,2.70
2019-01-13T19:33:56.126Z,3.00
2019-01-13T19:36:01.191Z,2.50
2019-01-13T19:38:06.617Z,3.30
2019-01-13T19:40:14.377Z,3.20
2019-01-13T19:42:19.670Z,1.77
2019-01-13T19:44:25.059Z,2.60
2019-01-13T19:46:29.972Z,1.60
2019-01-13T19:48:34.969Z,1.57
2019-01-13T19:50:40.073Z,1.90
2019-01-13T19:52:45.256Z,1.97
2019-01-13T19:54:50.237Z,1.90
2019-01-13T19:56:55.178Z,2.00
2019-01-13T19:59:00.172Z,2.07
2019-01-13T20:01:05.344Z,1.60
2019-01-13T20:03:10.496Z,1.50
2019-01-13T20:05:15.601Z,1.47
2019-01-13T20:07:20.690Z,1.50
2019-01-13T20:09:25.741Z,1.60
2019-01-13T20:11:30.818Z,1.67
2019-01-13T20:13:35.872Z,2.67
2019-01-13T20:15:41.017Z,3.93
2019-01-13T20:17:46.052Z,3.27
2019-01-13T20:19:51.140Z,2.07
2019-01-13T20:21:56.552Z,2.60
2019-01-13T20:24:01.613Z,2.67
2019-01-13T20:26:06.779Z,1.87
2019-01-13T20:28:11.864Z,3.03
2019-01-13T20:30:23.438Z,2.30
2019-01-13T20:32:28.576Z,2.43
2019-01-13T20:34:33.647Z,2.10
2019-01-13T20:36:38.639Z,2.60
2019-01-13T20:38:43.699Z,2.57
2019-01-13T20:40:49.097Z,2.47
2019-01-13T20:42:54.541Z,1.83
2019-01-13T20:44:59.880Z,2.27
2019-01-13T20:47:05.028Z,2.40
2019-01-13T20:49:10.013Z,3.00
2019-01-13T20:51:15.343Z,2.93
2019-01-13T20:53:20.630Z,3.67
2019-01-13T20:55:25.695Z,3.10
2019-01-13T20:57:31.012Z,2.63
2019-01-13T20:59:38.981Z,3.50
2019-01-13T21:01:43.930Z,3.03
2019-01-13T21:03:48.896Z,2.70
2019-01-13T21:05:54.043Z,2.50
2019-01-13T21:07:59.350Z,2.40
2019-01-13T21:10:06.267Z,2.43
2019-01-13T21:12:11.750Z,2.37
2019-01-13T21:14:16.724Z,3.30
2019-01-13T21:16:21.929Z,2.83
2019-01-13T21:18:26.959Z,2.87
2019-01-13T21:20:32.012Z,2.90
2019-01-13T21:22:37.123Z,2.60
2019-01-13T21:24:42.110Z,1.67
2019-01-13T21:26:47.183Z,1.93
2019-01-13T21:28:52.275Z,1.70
2019-01-13T21:30:57.415Z,1.87
2019-01-13T21:33:02.606Z,1.80
2019-01-13T21:35:08.602Z,2.03
2019-01-13T21:37:13.646Z,1.97
2019-01-13T21:39:18.614Z,2.30
2019-01-13T21:41:23.676Z,2.20
2019-01-13T21:43:28.601Z,2.40
2019-01-13T21:45:33.661Z,1.90
2019-01-13T21:47:38.703Z,1.93
2019-01-13T21:49:43.752Z,2.17
2019-01-13T21:51:48.699Z,2.07
2019-01-13T21:53:53.754Z,1.90
2019-01-13T21:55:58.681Z,1.80
2019-01-13T21:58:04.370Z,2.37
2019-01-13T22:00:15.358Z,1.40
2019-01-13T22:02:20.587Z,2.30
2019-01-13T22:04:25.626Z,2.20
2019-01-13T22:06:30.669Z,1.70
2019-01-13T22:08:35.667Z,4.37
2019-01-13T22:10:40.758Z,2.60
2019-01-13T22:12:45.966Z,1.67
2019-01-13T22:14:50.920Z,1.40
2019-01-13T22:16:56.131Z,1.87
2019-01-13T22:19:01.159Z,1.10
2019-01-13T22:21:06.312Z,1.30
2019-01-13T22:23:11.288Z,1.13
2019-01-13T22:25:16.820Z,1.20
2019-01-13T22:27:21.755Z,0.80
2019-01-13T22:29:26.670Z,1.23
2019-01-13T22:31:31.634Z,2.33
2019-01-13T22:33:36.596Z,1.47
2019-01-13T22:35:47.913Z,1.30
2019-01-13T22:37:55.274Z,1.20
2019-01-13T22:39:55.266Z,1.47
2019-01-13T22:42:00.592Z,1.40
2019-01-13T22:44:05.925Z,1.30
2019-01-13T22:46:10.963Z,3.53
2019-01-13T22:48:15.981Z,5.17
2019-01-13T22:50:21.368Z,2.50
2019-01-13T22:52:26.427Z,2.53
2019-01-13T22:54:31.625Z,1.03
2019-01-13T22:56:36.613Z,1.77
2019-01-13T22:58:41.830Z,2.97
2019-01-13T23:01:29.401Z,1.80
2019-01-13T23:03:34.451Z,1.53
2019-01-13T23:05:39.501Z,1.27
2019-01-13T23:07:44.633Z,1.50
2019-01-13T23:09:49.598Z,1.53
2019-01-13T23:11:54.694Z,1.47
2019-01-13T23:13:59.637Z,1.50
2019-01-13T23:16:04.907Z,1.63
2019-01-13T23:18:09.862Z,1.90
2019-01-13T23:20:15.110Z,1.57
2019-01-13T23:22:20.334Z,2.00
2019-01-13T23:24:25.224Z,1.40
2019-01-13T23:26:30.646Z,1.90
2019-01-13T23:28:35.972Z,1.90
2019-01-13T23:30:40.918Z,1.27
2019-01-13T23:32:45.890Z,1.60
2019-01-13T23:34:51.158Z,1.70
2019-01-13T23:36:56.100Z,1.57
2019-01-13T23:39:01.093Z,1.47
2019-01-13T23:41:06.122Z,1.63
2019-01-13T23:43:11.557Z,1.20
2019-01-13T23:45:16.772Z,1.63
2019-01-13T23:47:21.813Z,1.47
2019-01-13T23:49:26.941Z,1.50
2019-01-13T23:51:31.905Z,1.67
2019-01-13T23:53:36.886Z,1.90
2019-01-13T23:55:42.007Z,1.87
2019-01-13T23:57:47.042Z,1.23
2019-01-13T23:59:52.056Z,1.40
